sensor_id;sensor_type;location;lat;lon;timestamp;pressure;altitude;pressure_sealevel;temperature;humidity
28027;BME280;15344;52.342;-1.290;2023-04-19T00:00:17;101399.14;;;10.06;100.00
28027;BME280;15344;52.342;-1.290;2023-04-19T00:02:42;101396.01;;;10.29;100.00
28027;BME280;15344;52.342;-1.290;2023-04-19T00:05:08;101398.24;;;10.53;100.00
28027;BME280;15344;52.342;-1.290;2023-04-19T00:07:32;101404.63;;;10.69;100.00
28027;BME280;15344;52.342;-1.290;2023-04-19T00:09:58;101397.08;;;10.05;100.00
28027;BME280;15344;52.342;-1.290;2023-04-19T00:12:23;101396.39;;;9.55;100.00
28027;BME280;15344;52.342;-1.290;2023-04-19T00:14:48;101390.01;;;9.27;100.00
28027;BME280;15344;52.342;-1.290;2023-04-19T00:17:14;101390.24;;;10.31;100.00
28027;BME280;15344;52.342;-1.290;2023-04-19T00:19:40;101385.29;;;10.25;100.00
28027;BME280;15344;52.342;-1.290;2023-04-19T00:22:06;101382.67;;;10.43;100.00
28027;BME280;15344;52.342;-1.290;2023-04-19T00:24:32;101380.08;;;9.24;100.00
28027;BME280;15344;52.342;-1.290;2023-04-19T00:26:57;101381.70;;;9.72;100.00
28027;BME280;15344;52.342;-1.290;2023-04-19T00:29:22;101382.72;;;9.89;100.00
28027;BME280;15344;52.342;-1.290;2023-04-19T00:31:48;101383.79;;;9.54;100.00
28027;BME280;15344;52.342;-1.290;2023-04-19T00:34:13;101383.08;;;9.57;100.00
28027;BME280;15344;52.342;-1.290;2023-04-19T00:36:39;101379.05;;;9.22;100.00
28027;BME280;15344;52.342;-1.290;2023-04-19T00:39:04;101375.14;;;10.32;100.00
28027;BME280;15344;52.342;-1.290;2023-04-19T00:41:29;101374.65;;;9.92;100.00
28027;BME280;15344;52.342;-1.290;2023-04-19T00:43:55;101372.67;;;9.11;100.00
28027;BME280;15344;52.342;-1.290;2023-04-19T00:46:20;101373.50;;;10.12;100.00
28027;BME280;15344;52.342;-1.290;2023-04-19T00:48:45;101381.14;;;9.87;100.00
28027;BME280;15344;52.342;-1.290;2023-04-19T00:51:11;101374.95;;;9.83;100.00
28027;BME280;15344;52.342;-1.290;2023-04-19T00:53:36;101373.25;;;8.79;100.00
28027;BME280;15344;52.342;-1.290;2023-04-19T00:56:03;101368.97;;;10.30;100.00
28027;BME280;15344;52.342;-1.290;2023-04-19T00:58:27;101370.57;;;8.80;100.00
28027;BME280;15344;52.342;-1.290;2023-04-19T01:00:52;101362.90;;;9.91;100.00
28027;BME280;15344;52.342;-1.290;2023-04-19T01:03:18;101366.02;;;9.23;100.00
28027;BME280;15344;52.342;-1.290;2023-04-19T01:05:44;101366.98;;;8.99;100.00
28027;BME280;15344;52.342;-1.290;2023-04-19T01:08:09;101366.46;;;8.58;100.00
28027;BME280;15344;52.342;-1.290;2023-04-19T01:10:35;101360.81;;;9.42;100.00
28027;BME280;15344;52.342;-1.290;2023-04-19T01:13:00;101359.28;;;9.63;100.00
28027;BME280;15344;52.342;-1.290;2023-04-19T01:15:25;101356.52;;;10.01;100.00
28027;BME280;15344;52.342;-1.290;2023-04-19T01:17:51;101355.41;;;10.35;100.00
28027;BME280;15344;52.342;-1.290;2023-04-19T01:20:16;101361.30;;;10.27;100.00
28027;BME280;15344;52.342;-1.290;2023-04-19T01:22:42;101353.79;;;10.06;100.00
28027;BME280;15344;52.342;-1.290;2023-04-19T01:25:07;101357.09;;;9.54;100.00
28027;BME280;15344;52.342;-1.290;2023-04-19T01:27:33;101352.56;;;8.89;100.00
28027;BME280;15344;52.342;-1.290;2023-04-19T01:29:58;101353.18;;;9.81;100.00
28027;BME280;15344;52.342;-1.290;2023-04-19T01:32:24;101345.66;;;9.81;100.00
28027;BME280;15344;52.342;-1.290;2023-04-19T01:34:50;101342.75;;;9.47;100.00
28027;BME280;15344;52.342;-1.290;2023-04-19T01:37:15;101342.02;;;9.81;100.00
28027;BME280;15344;52.342;-1.290;2023-04-19T01:39:40;101339.44;;;9.22;100.00
28027;BME280;15344;52.342;-1.290;2023-04-19T01:42:06;101339.07;;;10.29;100.00
28027;BME280;15344;52.342;-1.290;2023-04-19T01:44:32;101338.16;;;8.94;100.00
28027;BME280;15344;52.342;-1.290;2023-04-19T01:46:57;101333.61;;;9.90;100.00
28027;BME280;15344;52.342;-1.290;2023-04-19T01:49:22;101331.55;;;10.23;100.00
28027;BME280;15344;52.342;-1.290;2023-04-19T01:51:48;101330.74;;;9.20;100.00
28027;BME280;15344;52.342;-1.290;2023-04-19T01:54:13;101329.05;;;9.18;100.00
28027;BME280;15344;52.342;-1.290;2023-04-19T01:56:38;101327.94;;;9.59;100.00
28027;BME280;15344;52.342;-1.290;2023-04-19T01:59:03;101323.67;;;9.50;100.00
28027;BME280;15344;52.342;-1.290;2023-04-19T02:01:28;101323.46;;;9.33;100.00
28027;BME280;15344;52.342;-1.290;2023-04-19T02:03:55;101321.40;;;10.00;100.00
28027;BME280;15344;52.342;-1.290;2023-04-19T02:06:20;101326.18;;;9.72;100.00
28027;BME280;15344;52.342;-1.290;2023-04-19T02:08:45;101322.25;;;9.51;100.00
28027;BME280;15344;52.342;-1.290;2023-04-19T02:11:12;101327.43;;;10.27;100.00
28027;BME280;15344;52.342;-1.290;2023-04-19T02:13:37;101328.15;;;9.56;100.00
28027;BME280;15344;52.342;-1.290;2023-04-19T02:16:02;101319.19;;;8.99;100.00
28027;BME280;15344;52.342;-1.290;2023-04-19T02:18:27;101317.81;;;9.65;100.00
28027;BME280;15344;52.342;-1.290;2023-04-19T02:20:52;101312.85;;;10.46;100.00
28027;BME280;15344;52.342;-1.290;2023-04-19T02:23:18;101311.72;;;9.15;100.00
28027;BME280;15344;52.342;-1.290;2023-04-19T02:25:44;101311.20;;;9.71;100.00
28027;BME280;15344;52.342;-1.290;2023-04-19T02:28:09;101303.54;;;10.29;100.00
28027;BME280;15344;52.342;-1.290;2023-04-19T02:30:36;101304.30;;;8.85;100.00
28027;BME280;15344;52.342;-1.290;2023-04-19T02:33:00;101298.30;;;10.13;100.00
28027;BME280;15344;52.342;-1.290;2023-04-19T02:35:25;101299.41;;;9.69;100.00
28027;BME280;15344;52.342;-1.290;2023-04-19T02:37:50;101297.40;;;10.48;100.00
28027;BME280;15344;52.342;-1.290;2023-04-19T02:40:16;101296.90;;;10.29;100.00
28027;BME280;15344;52.342;-1.290;2023-04-19T02:42:41;101297.59;;;8.85;100.00
28027;BME280;15344;52.342;-1.290;2023-04-19T02:45:08;101291.00;;;9.84;100.00
28027;BME280;15344;52.342;-1.290;2023-04-19T02:47:32;101289.80;;;10.30;100.00
28027;BME280;15344;52.342;-1.290;2023-04-19T02:49:59;101289.81;;;9.87;100.00
28027;BME280;15344;52.342;-1.290;2023-04-19T02:52:25;101286.72;;;9.59;100.00
28027;BME280;15344;52.342;-1.290;2023-04-19T02:54:49;101291.17;;;9.63;100.00
28027;BME280;15344;52.342;-1.290;2023-04-19T02:57:14;101292.01;;;8.69;100.00
28027;BME280;15344;52.342;-1.290;2023-04-19T02:59:39;101292.66;;;8.95;100.00
28027;BME280;15344;52.342;-1.290;2023-04-19T03:02:04;101291.84;;;9.54;100.00
28027;BME280;15344;52.342;-1.290;2023-04-19T03:04:30;101289.30;;;10.82;100.00
28027;BME280;15344;52.342;-1.290;2023-04-19T03:06:55;101292.73;;;9.97;100.00
28027;BME280;15344;52.342;-1.290;2023-04-19T03:09:20;101289.26;;;10.54;100.00
28027;BME280;15344;52.342;-1.290;2023-04-19T03:11:46;101288.95;;;9.55;100.00
28027;BME280;15344;52.342;-1.290;2023-04-19T03:14:11;101290.10;;;9.90;100.00
28027;BME280;15344;52.342;-1.290;2023-04-19T03:16:36;101286.27;;;10.39;100.00
28027;BME280;15344;52.342;-1.290;2023-04-19T03:19:02;101288.71;;;10.11;100.00
28027;BME280;15344;52.342;-1.290;2023-04-19T03:21:28;101291.29;;;11.00;100.00
28027;BME280;15344;52.342;-1.290;2023-04-19T03:23:54;101291.84;;;10.19;100.00
28027;BME280;15344;52.342;-1.290;2023-04-19T03:26:19;101290.58;;;10.64;100.00
28027;BME280;15344;52.342;-1.290;2023-04-19T03:28:45;101292.24;;;10.48;100.00
28027;BME280;15344;52.342;-1.290;2023-04-19T03:31:10;101290.64;;;10.42;100.00
28027;BME280;15344;52.342;-1.290;2023-04-19T03:33:35;101296.08;;;8.47;100.00
28027;BME280;15344;52.342;-1.290;2023-04-19T03:36:02;101290.32;;;8.79;100.00
28027;BME280;15344;52.342;-1.290;2023-04-19T03:38:28;101286.41;;;10.62;100.00
28027;BME280;15344;52.342;-1.290;2023-04-19T03:40:53;101284.48;;;10.31;100.00
28027;BME280;15344;52.342;-1.290;2023-04-19T03:43:18;101285.99;;;10.66;100.00
28027;BME280;15344;52.342;-1.290;2023-04-19T03:45:43;101294.35;;;11.32;100.00
28027;BME280;15344;52.342;-1.290;2023-04-19T03:48:09;101287.65;;;10.69;100.00
28027;BME280;15344;52.342;-1.290;2023-04-19T03:50:34;101288.83;;;9.31;100.00
28027;BME280;15344;52.342;-1.290;2023-04-19T03:53:00;101286.87;;;8.53;100.00
28027;BME280;15344;52.342;-1.290;2023-04-19T03:55:25;101284.74;;;9.92;100.00
28027;BME280;15344;52.342;-1.290;2023-04-19T03:57:51;101286.14;;;9.64;100.00
28027;BME280;15344;52.342;-1.290;2023-04-19T04:00:16;101288.92;;;9.29;100.00
28027;BME280;15344;52.342;-1.290;2023-04-19T04:02:41;101285.58;;;10.11;100.00
28027;BME280;15344;52.342;-1.290;2023-04-19T04:05:07;101285.82;;;9.32;100.00
28027;BME280;15344;52.342;-1.290;2023-04-19T04:07:33;101284.10;;;9.84;100.00
28027;BME280;15344;52.342;-1.290;2023-04-19T04:09:58;101279.50;;;9.60;100.00
28027;BME280;15344;52.342;-1.290;2023-04-19T04:12:23;101281.84;;;9.03;100.00
28027;BME280;15344;52.342;-1.290;2023-04-19T04:14:48;101279.39;;;9.18;100.00
28027;BME280;15344;52.342;-1.290;2023-04-19T04:17:14;101274.29;;;10.41;100.00
28027;BME280;15344;52.342;-1.290;2023-04-19T04:19:39;101279.10;;;9.58;100.00
28027;BME280;15344;52.342;-1.290;2023-04-19T04:22:05;101278.78;;;9.22;100.00
28027;BME280;15344;52.342;-1.290;2023-04-19T04:24:29;101279.42;;;9.88;100.00
28027;BME280;15344;52.342;-1.290;2023-04-19T04:26:55;101278.23;;;10.00;100.00
28027;BME280;15344;52.342;-1.290;2023-04-19T04:29:21;101277.68;;;9.93;100.00
28027;BME280;15344;52.342;-1.290;2023-04-19T04:31:46;101278.87;;;10.62;100.00
28027;BME280;15344;52.342;-1.290;2023-04-19T04:34:11;101282.63;;;7.95;100.00
28027;BME280;15344;52.342;-1.290;2023-04-19T04:36:37;101283.41;;;9.23;100.00
28027;BME280;15344;52.342;-1.290;2023-04-19T04:39:02;101281.00;;;8.62;100.00
28027;BME280;15344;52.342;-1.290;2023-04-19T04:41:28;101290.70;;;8.85;100.00
28027;BME280;15344;52.342;-1.290;2023-04-19T04:43:54;101289.40;;;10.12;100.00
28027;BME280;15344;52.342;-1.290;2023-04-19T04:46:19;101287.60;;;10.38;100.00
28027;BME280;15344;52.342;-1.290;2023-04-19T04:48:45;101288.57;;;9.55;100.00
28027;BME280;15344;52.342;-1.290;2023-04-19T04:51:11;101290.55;;;8.92;100.00
28027;BME280;15344;52.342;-1.290;2023-04-19T04:53:36;101292.84;;;9.11;100.00
28027;BME280;15344;52.342;-1.290;2023-04-19T04:56:02;101289.21;;;9.36;100.00
28027;BME280;15344;52.342;-1.290;2023-04-19T04:58:27;101286.28;;;8.65;100.00
28027;BME280;15344;52.342;-1.290;2023-04-19T05:00:53;101287.82;;;8.23;100.00
28027;BME280;15344;52.342;-1.290;2023-04-19T05:03:18;101290.45;;;8.92;100.00
28027;BME280;15344;52.342;-1.290;2023-04-19T05:05:44;101288.45;;;8.38;100.00
28027;BME280;15344;52.342;-1.290;2023-04-19T05:08:09;101291.70;;;8.39;100.00
28027;BME280;15344;52.342;-1.290;2023-04-19T05:10:34;101294.47;;;8.34;100.00
28027;BME280;15344;52.342;-1.290;2023-04-19T05:13:00;101292.79;;;9.95;100.00
28027;BME280;15344;52.342;-1.290;2023-04-19T05:15:25;101294.71;;;10.05;100.00
28027;BME280;15344;52.342;-1.290;2023-04-19T05:17:50;101289.07;;;10.40;100.00
28027;BME280;15344;52.342;-1.290;2023-04-19T05:20:16;101293.96;;;9.46;100.00
28027;BME280;15344;52.342;-1.290;2023-04-19T05:22:41;101297.26;;;9.49;100.00
28027;BME280;15344;52.342;-1.290;2023-04-19T05:25:09;101297.81;;;9.10;100.00
28027;BME280;15344;52.342;-1.290;2023-04-19T05:27:33;101297.35;;;9.67;100.00
28027;BME280;15344;52.342;-1.290;2023-04-19T05:29:58;101296.61;;;9.39;100.00
28027;BME280;15344;52.342;-1.290;2023-04-19T05:32:23;101299.66;;;9.29;100.00
28027;BME280;15344;52.342;-1.290;2023-04-19T05:34:48;101302.23;;;8.61;100.00
28027;BME280;15344;52.342;-1.290;2023-04-19T05:37:14;101306.05;;;8.63;100.00
28027;BME280;15344;52.342;-1.290;2023-04-19T05:39:39;101298.88;;;8.94;100.00
28027;BME280;15344;52.342;-1.290;2023-04-19T05:42:05;101299.00;;;9.29;100.00
28027;BME280;15344;52.342;-1.290;2023-04-19T05:44:30;101292.96;;;9.06;100.00
28027;BME280;15344;52.342;-1.290;2023-04-19T05:46:56;101298.26;;;9.23;100.00
28027;BME280;15344;52.342;-1.290;2023-04-19T05:49:22;101294.09;;;9.61;100.00
28027;BME280;15344;52.342;-1.290;2023-04-19T05:51:47;101293.49;;;8.96;100.00
28027;BME280;15344;52.342;-1.290;2023-04-19T05:54:13;101290.24;;;9.18;100.00
28027;BME280;15344;52.342;-1.290;2023-04-19T05:56:38;101291.84;;;8.15;100.00
28027;BME280;15344;52.342;-1.290;2023-04-19T05:59:03;101290.28;;;7.94;100.00
28027;BME280;15344;52.342;-1.290;2023-04-19T06:01:28;101295.76;;;9.34;100.00
28027;BME280;15344;52.342;-1.290;2023-04-19T06:03:54;101295.36;;;8.70;100.00
28027;BME280;15344;52.342;-1.290;2023-04-19T06:06:21;101299.87;;;9.74;100.00
28027;BME280;15344;52.342;-1.290;2023-04-19T06:08:45;101299.41;;;8.92;100.00
28027;BME280;15344;52.342;-1.290;2023-04-19T06:11:10;101296.60;;;9.14;100.00
28027;BME280;15344;52.342;-1.290;2023-04-19T06:13:35;101293.19;;;8.35;100.00
28027;BME280;15344;52.342;-1.290;2023-04-19T06:16:01;101294.44;;;8.72;100.00
28027;BME280;15344;52.342;-1.290;2023-04-19T06:18:27;101296.54;;;8.05;100.00
28027;BME280;15344;52.342;-1.290;2023-04-19T06:20:52;101292.20;;;8.68;100.00
28027;BME280;15344;52.342;-1.290;2023-04-19T06:23:17;101288.49;;;9.13;100.00
28027;BME280;15344;52.342;-1.290;2023-04-19T06:25:43;101289.57;;;8.74;100.00
28027;BME280;15344;52.342;-1.290;2023-04-19T06:28:08;101294.58;;;9.35;100.00
28027;BME280;15344;52.342;-1.290;2023-04-19T06:30:34;101292.84;;;8.80;100.00
28027;BME280;15344;52.342;-1.290;2023-04-19T06:32:59;101291.40;;;9.04;100.00
28027;BME280;15344;52.342;-1.290;2023-04-19T06:35:24;101294.12;;;8.98;100.00
28027;BME280;15344;52.342;-1.290;2023-04-19T06:37:50;101288.99;;;8.89;100.00
28027;BME280;15344;52.342;-1.290;2023-04-19T06:40:16;101291.43;;;9.13;100.00
28027;BME280;15344;52.342;-1.290;2023-04-19T06:42:41;101295.15;;;9.23;100.00
28027;BME280;15344;52.342;-1.290;2023-04-19T06:45:07;101294.45;;;8.94;100.00
28027;BME280;15344;52.342;-1.290;2023-04-19T06:47:33;101299.00;;;9.70;100.00
28027;BME280;15344;52.342;-1.290;2023-04-19T06:49:57;101291.66;;;9.41;100.00
28027;BME280;15344;52.342;-1.290;2023-04-19T06:52:23;101297.38;;;9.47;100.00
28027;BME280;15344;52.342;-1.290;2023-04-19T06:54:49;101287.89;;;9.08;100.00
28027;BME280;15344;52.342;-1.290;2023-04-19T06:57:14;101286.99;;;9.76;100.00
28027;BME280;15344;52.342;-1.290;2023-04-19T06:59:39;101291.06;;;9.99;100.00
28027;BME280;15344;52.342;-1.290;2023-04-19T07:02:06;101291.71;;;8.98;100.00
28027;BME280;15344;52.342;-1.290;2023-04-19T07:04:31;101289.45;;;10.55;100.00
28027;BME280;15344;52.342;-1.290;2023-04-19T07:06:56;101297.44;;;9.65;100.00
28027;BME280;15344;52.342;-1.290;2023-04-19T07:09:22;101304.48;;;8.79;100.00
28027;BME280;15344;52.342;-1.290;2023-04-19T07:11:46;101303.31;;;9.29;100.00
28027;BME280;15344;52.342;-1.290;2023-04-19T07:14:12;101308.09;;;9.64;100.00
28027;BME280;15344;52.342;-1.290;2023-04-19T07:16:37;101311.12;;;10.22;100.00
28027;BME280;15344;52.342;-1.290;2023-04-19T07:19:03;101307.67;;;10.42;100.00
28027;BME280;15344;52.342;-1.290;2023-04-19T07:21:28;101313.37;;;11.41;100.00
28027;BME280;15344;52.342;-1.290;2023-04-19T07:23:54;101319.82;;;11.44;100.00
28027;BME280;15344;52.342;-1.290;2023-04-19T07:26:19;101322.25;;;10.79;100.00
28027;BME280;15344;52.342;-1.290;2023-04-19T07:28:44;101319.82;;;10.66;100.00
28027;BME280;15344;52.342;-1.290;2023-04-19T07:31:14;101322.90;;;11.35;100.00
28027;BME280;15344;52.342;-1.290;2023-04-19T07:33:35;101319.01;;;10.92;100.00
28027;BME280;15344;52.342;-1.290;2023-04-19T07:36:02;101318.00;;;13.00;100.00
28027;BME280;15344;52.342;-1.290;2023-04-19T07:38:27;101325.80;;;13.56;93.68
28027;BME280;15344;52.342;-1.290;2023-04-19T07:40:52;101327.47;;;14.17;91.94
28027;BME280;15344;52.342;-1.290;2023-04-19T07:43:17;101324.88;;;12.41;93.17
28027;BME280;15344;52.342;-1.290;2023-04-19T07:45:42;101334.37;;;13.00;95.03
28027;BME280;15344;52.342;-1.290;2023-04-19T07:48:08;101335.76;;;12.32;95.82
28027;BME280;15344;52.342;-1.290;2023-04-19T07:50:33;101334.02;;;14.09;93.22
28027;BME280;15344;52.342;-1.290;2023-04-19T07:52:58;101332.06;;;14.93;83.48
28027;BME280;15344;52.342;-1.290;2023-04-19T07:55:24;101335.53;;;14.41;84.49
28027;BME280;15344;52.342;-1.290;2023-04-19T07:57:49;101334.00;;;14.24;85.17
28027;BME280;15344;52.342;-1.290;2023-04-19T08:00:16;101334.91;;;14.04;84.38
28027;BME280;15344;52.342;-1.290;2023-04-19T08:02:42;101336.25;;;14.96;81.55
28027;BME280;15344;52.342;-1.290;2023-04-19T08:05:07;101336.39;;;13.30;88.36
28027;BME280;15344;52.342;-1.290;2023-04-19T08:07:32;101339.44;;;13.37;88.81
28027;BME280;15344;52.342;-1.290;2023-04-19T08:09:57;101338.51;;;12.20;95.32
28027;BME280;15344;52.342;-1.290;2023-04-19T08:12:23;101336.99;;;13.88;91.52
28027;BME280;15344;52.342;-1.290;2023-04-19T08:14:48;101345.29;;;12.58;90.81
28027;BME280;15344;52.342;-1.290;2023-04-19T08:17:14;101341.53;;;11.44;97.66
28027;BME280;15344;52.342;-1.290;2023-04-19T08:19:39;101332.16;;;12.83;94.31
28027;BME280;15344;52.342;-1.290;2023-04-19T08:22:05;101341.07;;;12.85;93.84
28027;BME280;15344;52.342;-1.290;2023-04-19T08:24:30;101337.64;;;13.30;94.19
28027;BME280;15344;52.342;-1.290;2023-04-19T08:26:56;101339.52;;;13.51;88.55
28027;BME280;15344;52.342;-1.290;2023-04-19T08:29:22;101341.85;;;13.93;87.61
28027;BME280;15344;52.342;-1.290;2023-04-19T08:31:47;101335.27;;;13.07;91.22
28027;BME280;15344;52.342;-1.290;2023-04-19T08:34:12;101342.20;;;12.18;97.11
28027;BME280;15344;52.342;-1.290;2023-04-19T08:36:37;101338.38;;;12.51;97.75
28027;BME280;15344;52.342;-1.290;2023-04-19T08:39:03;101339.82;;;13.18;93.48
28027;BME280;15344;52.342;-1.290;2023-04-19T08:41:29;101339.65;;;14.17;89.65
28027;BME280;15344;52.342;-1.290;2023-04-19T08:43:54;101343.41;;;13.48;91.94
28027;BME280;15344;52.342;-1.290;2023-04-19T08:46:20;101348.34;;;12.92;92.71
28027;BME280;15344;52.342;-1.290;2023-04-19T08:48:45;101349.64;;;13.85;93.18
28027;BME280;15344;52.342;-1.290;2023-04-19T08:51:11;101349.15;;;12.43;97.27
28027;BME280;15344;52.342;-1.290;2023-04-19T08:53:36;101350.72;;;13.35;94.04
28027;BME280;15344;52.342;-1.290;2023-04-19T08:56:01;101350.26;;;12.99;95.05
28027;BME280;15344;52.342;-1.290;2023-04-19T08:58:26;101358.20;;;12.31;99.22
28027;BME280;15344;52.342;-1.290;2023-04-19T09:00:51;101353.61;;;12.72;98.09
28027;BME280;15344;52.342;-1.290;2023-04-19T09:03:16;101351.85;;;12.78;96.20
28027;BME280;15344;52.342;-1.290;2023-04-19T09:05:42;101357.16;;;13.09;92.89
28027;BME280;15344;52.342;-1.290;2023-04-19T09:10:33;101349.28;;;12.74;96.12
28027;BME280;15344;52.342;-1.290;2023-04-19T09:13:00;101345.37;;;12.80;95.89
28027;BME280;15344;52.342;-1.290;2023-04-19T09:20:14;101343.61;;;13.46;92.13
28027;BME280;15344;52.342;-1.290;2023-04-19T09:22:40;101345.31;;;13.68;92.30
28027;BME280;15344;52.342;-1.290;2023-04-19T09:25:05;101346.12;;;13.96;91.88
28027;BME280;15344;52.342;-1.290;2023-04-19T09:27:32;101343.30;;;13.84;89.64
28027;BME280;15344;52.342;-1.290;2023-04-19T09:29:57;101342.60;;;13.10;93.28
28027;BME280;15344;52.342;-1.290;2023-04-19T09:32:22;101340.38;;;13.03;94.45
28027;BME280;15344;52.342;-1.290;2023-04-19T09:34:53;101339.18;;;13.49;91.61
28027;BME280;15344;52.342;-1.290;2023-04-19T09:37:13;101336.73;;;13.11;95.17
28027;BME280;15344;52.342;-1.290;2023-04-19T09:39:39;101327.80;;;13.03;96.91
28027;BME280;15344;52.342;-1.290;2023-04-19T09:42:04;101319.75;;;12.88;97.37
28027;BME280;15344;52.342;-1.290;2023-04-19T09:44:29;101320.94;;;13.99;92.47
28027;BME280;15344;52.342;-1.290;2023-04-19T09:46:55;101322.92;;;15.52;86.47
28027;BME280;15344;52.342;-1.290;2023-04-19T09:49:22;101323.61;;;15.60;82.71
28027;BME280;15344;52.342;-1.290;2023-04-19T09:51:46;101325.03;;;15.23;84.20
28027;BME280;15344;52.342;-1.290;2023-04-19T09:54:12;101329.20;;;15.17;82.23
28027;BME280;15344;52.342;-1.290;2023-04-19T09:56:37;101323.53;;;15.44;82.31
28027;BME280;15344;52.342;-1.290;2023-04-19T09:59:03;101320.84;;;15.70;79.34
28027;BME280;15344;52.342;-1.290;2023-04-19T10:01:28;101316.55;;;14.39;86.26
28027;BME280;15344;52.342;-1.290;2023-04-19T10:03:54;101312.57;;;14.42;85.96
28027;BME280;15344;52.342;-1.290;2023-04-19T10:06:19;101310.07;;;15.42;81.43
28027;BME280;15344;52.342;-1.290;2023-04-19T10:08:45;101308.28;;;14.86;85.32
28027;BME280;15344;52.342;-1.290;2023-04-19T10:11:10;101307.27;;;13.99;89.56
28027;BME280;15344;52.342;-1.290;2023-04-19T10:13:36;101301.81;;;14.07;89.96
28027;BME280;15344;52.342;-1.290;2023-04-19T10:16:02;101302.24;;;14.65;85.50
28027;BME280;15344;52.342;-1.290;2023-04-19T10:18:26;101302.05;;;15.73;87.28
28027;BME280;15344;52.342;-1.290;2023-04-19T10:20:56;101292.76;;;16.61;81.05
28027;BME280;15344;52.342;-1.290;2023-04-19T10:23:17;101300.24;;;15.17;82.46
28027;BME280;15344;52.342;-1.290;2023-04-19T10:25:46;101297.35;;;16.35;82.67
28027;BME280;15344;52.342;-1.290;2023-04-19T10:28:08;101297.65;;;15.39;83.92
28027;BME280;15344;52.342;-1.290;2023-04-19T10:30:33;101295.12;;;15.47;85.11
28027;BME280;15344;52.342;-1.290;2023-04-19T10:32:59;101295.57;;;15.36;83.58
28027;BME280;15344;52.342;-1.290;2023-04-19T10:35:26;101290.37;;;15.57;84.17
28027;BME280;15344;52.342;-1.290;2023-04-19T10:47:39;101288.06;;;15.96;85.67
28027;BME280;15344;52.342;-1.290;2023-04-19T10:49:56;101288.16;;;15.85;85.15
28027;BME280;15344;52.342;-1.290;2023-04-19T10:52:27;101282.78;;;15.88;84.18
28027;BME280;15344;52.342;-1.290;2023-04-19T10:54:55;101286.36;;;15.52;83.71
28027;BME280;15344;52.342;-1.290;2023-04-19T10:57:12;101276.62;;;14.79;87.39
28027;BME280;15344;52.342;-1.290;2023-04-19T10:59:38;101282.19;;;14.96;87.53
28027;BME280;15344;52.342;-1.290;2023-04-19T11:02:05;101275.57;;;15.32;86.44
28027;BME280;15344;52.342;-1.290;2023-04-19T11:06:59;101273.93;;;14.83;86.77
28027;BME280;15344;52.342;-1.290;2023-04-19T11:09:21;101274.35;;;15.34;85.36
28027;BME280;15344;52.342;-1.290;2023-04-19T11:11:46;101274.54;;;14.81;84.90
28027;BME280;15344;52.342;-1.290;2023-04-19T11:14:12;101262.60;;;14.47;88.93
28027;BME280;15344;52.342;-1.290;2023-04-19T11:16:37;101264.62;;;15.01;83.86
28027;BME280;15344;52.342;-1.290;2023-04-19T11:19:02;101262.11;;;15.49;84.25
28027;BME280;15344;52.342;-1.290;2023-04-19T11:21:28;101259.22;;;14.82;84.81
28027;BME280;15344;52.342;-1.290;2023-04-19T11:26:19;101261.22;;;16.00;80.35
28027;BME280;15344;52.342;-1.290;2023-04-19T11:28:44;101259.19;;;15.96;79.92
28027;BME280;15344;52.342;-1.290;2023-04-19T11:31:10;101254.21;;;15.56;80.87
28027;BME280;15344;52.342;-1.290;2023-04-19T11:33:36;101264.07;;;15.88;82.24
28027;BME280;15344;52.342;-1.290;2023-04-19T11:36:01;101256.09;;;14.82;84.67
28027;BME280;15344;52.342;-1.290;2023-04-19T11:38:27;101260.93;;;15.20;85.61
28027;BME280;15344;52.342;-1.290;2023-04-19T11:40:58;101248.33;;;16.49;78.41
28027;BME280;15344;52.342;-1.290;2023-04-19T11:43:16;101246.64;;;17.18;75.61
28027;BME280;15344;52.342;-1.290;2023-04-19T11:45:42;101248.23;;;16.05;78.28
28027;BME280;15344;52.342;-1.290;2023-04-19T11:48:12;101257.04;;;14.73;82.64
28027;BME280;15344;52.342;-1.290;2023-04-19T11:50:34;101249.04;;;15.63;80.47
28027;BME280;15344;52.342;-1.290;2023-04-19T11:52:58;101241.98;;;15.72;80.86
28027;BME280;15344;52.342;-1.290;2023-04-19T11:55:24;101239.79;;;16.50;81.18
28027;BME280;15344;52.342;-1.290;2023-04-19T11:57:48;101250.07;;;15.17;82.04
28027;BME280;15344;52.342;-1.290;2023-04-19T12:00:15;101245.52;;;15.20;82.66
28027;BME280;15344;52.342;-1.290;2023-04-19T12:02:42;101243.04;;;15.03;84.93
28027;BME280;15344;52.342;-1.290;2023-04-19T12:05:09;101242.08;;;14.91;87.95
28027;BME280;15344;52.342;-1.290;2023-04-19T12:07:30;101246.94;;;15.12;85.29
28027;BME280;15344;52.342;-1.290;2023-04-19T12:09:56;101240.65;;;14.39;88.29
28027;BME280;15344;52.342;-1.290;2023-04-19T12:14:51;101234.44;;;14.04;89.11
28027;BME280;15344;52.342;-1.290;2023-04-19T12:17:12;101238.99;;;14.69;87.89
28027;BME280;15344;52.342;-1.290;2023-04-19T12:19:42;101240.98;;;14.79;85.43
28027;BME280;15344;52.342;-1.290;2023-04-19T12:22:08;101235.36;;;15.53;85.34
28027;BME280;15344;52.342;-1.290;2023-04-19T12:24:28;101239.72;;;15.00;84.12
28027;BME280;15344;52.342;-1.290;2023-04-19T12:26:55;101229.61;;;14.93;86.07
28027;BME280;15344;52.342;-1.290;2023-04-19T12:29:19;101229.17;;;15.90;83.92
28027;BME280;15344;52.342;-1.290;2023-04-19T12:31:45;101231.15;;;15.23;86.11
28027;BME280;15344;52.342;-1.290;2023-04-19T12:34:11;101226.07;;;15.18;84.64
28027;BME280;15344;52.342;-1.290;2023-04-19T12:36:36;101229.80;;;15.53;85.47
28027;BME280;15344;52.342;-1.290;2023-04-19T12:39:01;101231.43;;;15.04;85.39
28027;BME280;15344;52.342;-1.290;2023-04-19T12:41:27;101226.05;;;14.40;88.51
28027;BME280;15344;52.342;-1.290;2023-04-19T12:43:52;101223.02;;;14.12;94.97
28027;BME280;15344;52.342;-1.290;2023-04-19T12:46:17;101227.12;;;15.37;87.70
28027;BME280;15344;52.342;-1.290;2023-04-19T12:48:43;101216.07;;;15.58;86.89
28027;BME280;15344;52.342;-1.290;2023-04-19T12:51:08;101216.64;;;15.56;86.26